createdAt,value
2018-04-17T00:01:18.878Z,59.80
2018-04-17T00:03:47.013Z,59.70
2018-04-17T00:06:15.156Z,59.80
2018-04-17T00:08:43.260Z,59.80
2018-04-17T00:11:12.177Z,59.90
2018-04-17T00:13:40.327Z,59.90
2018-04-17T00:16:08.440Z,59.80
2018-04-17T00:18:36.636Z,59.90
2018-04-17T00:21:04.745Z,59.90
2018-04-17T00:23:33.645Z,60.00
2018-04-17T00:26:02.520Z,59.90
2018-04-17T00:28:30.636Z,59.90
2018-04-17T00:30:58.749Z,59.90
2018-04-17T00:33:26.839Z,60.00
2018-04-17T00:35:54.979Z,59.90
2018-04-17T00:38:23.123Z,60.00
2018-04-17T00:40:51.226Z,60.00
2018-04-17T00:43:19.332Z,60.00
2018-04-17T00:45:47.608Z,60.00
2018-04-17T00:48:15.687Z,60.00
2018-04-17T00:50:43.823Z,60.00
2018-04-17T00:53:23.761Z,60.00
2018-04-17T00:55:52.637Z,60.00
2018-04-17T00:58:20.758Z,60.00
2018-04-17T01:00:48.987Z,60.20
2018-04-17T01:03:17.128Z,60.20
2018-04-17T01:05:45.264Z,60.40
2018-04-17T01:08:14.156Z,60.70
2018-04-17T01:10:43.033Z,60.70
2018-04-17T01:13:11.164Z,60.70
2018-04-17T01:15:39.486Z,60.50
2018-04-17T01:18:07.592Z,60.70
2018-04-17T01:20:36.578Z,60.80
2018-04-17T01:23:05.535Z,60.70
2018-04-17T01:25:33.660Z,60.70
2018-04-17T01:28:02.552Z,60.80
2018-04-17T01:30:31.421Z,60.80
2018-04-17T01:32:59.518Z,60.80
2018-04-17T01:35:28.408Z,60.90
2018-04-17T01:37:57.308Z,61.00
2018-04-17T01:40:25.435Z,60.90
2018-04-17T01:42:53.534Z,61.00
2018-04-17T01:45:21.692Z,60.90
2018-04-17T01:47:49.776Z,61.00
2018-04-17T01:50:17.883Z,61.10
2018-04-17T01:52:46.014Z,61.00
2018-04-17T01:55:14.156Z,61.00
2018-04-17T01:57:43.023Z,61.20
2018-04-17T02:00:11.149Z,61.10
2018-04-17T02:02:39.263Z,61.10
2018-04-17T02:05:07.358Z,61.00
2018-04-17T02:07:35.483Z,61.20
2018-04-17T02:10:03.580Z,61.10
2018-04-17T02:12:31.765Z,61.20
2018-04-17T02:14:59.886Z,61.10
2018-04-17T02:17:28.799Z,61.30
2018-04-17T02:19:57.689Z,61.30
2018-04-17T02:22:25.845Z,61.30
2018-04-17T02:24:53.946Z,61.30
2018-04-17T02:27:22.116Z,61.40
2018-04-17T02:29:50.569Z,61.40
2018-04-17T02:32:18.709Z,61.40
2018-04-17T02:34:46.813Z,61.30
2018-04-17T02:37:14.998Z,61.40
2018-04-17T02:39:43.911Z,61.40
2018-04-17T02:42:12.008Z,61.30
2018-04-17T02:44:40.131Z,61.30
2018-04-17T02:47:08.232Z,61.30
2018-04-17T02:49:37.413Z,61.30
2018-04-17T02:52:05.660Z,61.30
2018-04-17T02:54:33.770Z,61.30
2018-04-17T02:57:01.866Z,61.40
2018-04-17T02:59:30.023Z,61.40
2018-04-17T03:01:58.227Z,61.30
2018-04-17T03:04:26.322Z,62.30
2018-04-17T03:06:55.206Z,62.40
2018-04-17T03:09:23.288Z,62.30
2018-04-17T03:11:52.171Z,62.30
2018-04-17T03:14:21.057Z,62.20
2018-04-17T03:16:49.180Z,62.20
2018-04-17T03:19:17.315Z,63.00
2018-04-17T03:21:45.524Z,62.30
2018-04-17T03:24:14.384Z,62.40
2018-04-17T03:26:42.503Z,62.20
2018-04-17T03:29:10.624Z,62.20
2018-04-17T03:31:38.744Z,62.20
2018-04-17T03:34:06.844Z,62.20
2018-04-17T03:36:34.995Z,62.20
2018-04-17T03:39:03.181Z,62.20
2018-04-17T03:41:31.296Z,62.20
2018-04-17T03:43:59.392Z,62.30
2018-04-17T03:46:27.519Z,62.30
2018-04-17T03:48:55.676Z,62.30
2018-04-17T03:51:23.762Z,62.20
2018-04-17T03:53:51.860Z,62.20
2018-04-17T03:56:19.965Z,62.20
2018-04-17T03:58:48.816Z,62.20
2018-04-17T04:01:16.935Z,62.20
2018-04-17T04:03:45.090Z,62.20
2018-04-17T04:06:14.324Z,62.20
2018-04-17T04:08:42.436Z,62.10
2018-04-17T04:11:10.610Z,62.10
2018-04-17T04:13:38.741Z,62.10
2018-04-17T04:16:07.998Z,62.10
2018-04-17T04:18:48.062Z,62.00
2018-04-17T04:21:27.859Z,62.00
2018-04-17T04:24:07.851Z,62.00
2018-04-17T04:26:36.086Z,62.30
2018-04-17T04:29:04.197Z,62.10
2018-04-17T04:31:33.151Z,62.60
2018-04-17T04:34:01.233Z,62.70
2018-04-17T04:36:29.327Z,62.10
2018-04-17T04:38:58.220Z,62.50
2018-04-17T04:41:27.094Z,63.10
2018-04-17T04:43:55.191Z,62.30
2018-04-17T04:46:24.080Z,62.40
2018-04-17T04:48:52.221Z,62.40
2018-04-17T04:51:20.356Z,62.60
2018-04-17T04:53:49.793Z,62.50
2018-04-17T04:56:17.924Z,62.40
2018-04-17T04:58:46.791Z,62.50
2018-04-17T05:01:14.929Z,62.40
2018-04-17T05:03:43.044Z,62.50
2018-04-17T05:06:11.167Z,62.70
2018-04-17T05:08:39.283Z,63.10
2018-04-17T05:11:07.437Z,63.30
2018-04-17T05:13:35.548Z,63.40
2018-04-17T05:16:03.660Z,63.50
2018-04-17T05:18:32.563Z,63.70
2018-04-17T05:21:00.674Z,63.80
2018-04-17T05:23:28.941Z,63.70
2018-04-17T05:25:57.032Z,63.80
2018-04-17T05:28:25.128Z,64.00
2018-04-17T05:30:54.464Z,63.90
2018-04-17T05:33:23.440Z,64.00
2018-04-17T05:35:51.531Z,63.90
2018-04-17T05:38:20.411Z,63.50
2018-04-17T05:40:48.558Z,64.30
2018-04-17T05:43:16.725Z,63.90
2018-04-17T05:45:44.959Z,63.80
2018-04-17T05:48:13.068Z,63.60
2018-04-17T05:50:41.192Z,63.60
2018-04-17T05:53:09.372Z,63.50
2018-04-17T05:55:37.581Z,63.30
2018-04-17T05:58:05.676Z,63.00
2018-04-17T06:00:33.794Z,62.50
2018-04-17T06:03:02.680Z,62.50
2018-04-17T06:05:30.791Z,62.60
2018-04-17T06:07:59.689Z,62.50
2018-04-17T06:10:28.983Z,62.00
2018-04-17T06:12:57.096Z,61.60
2018-04-17T06:15:25.208Z,61.10
2018-04-17T06:17:53.312Z,60.70
2018-04-17T06:20:21.514Z,60.10
2018-04-17T06:22:50.409Z,59.90
2018-04-17T06:25:19.271Z,59.80
2018-04-17T06:27:47.391Z,59.80
2018-04-17T06:30:15.510Z,59.90
2018-04-17T06:32:43.667Z,59.90
2018-04-17T06:35:11.757Z,59.90
2018-04-17T06:37:39.864Z,60.00
2018-04-17T06:40:07.997Z,60.10
2018-04-17T06:42:36.165Z,60.30
2018-04-17T06:45:04.344Z,60.30
2018-04-17T06:47:32.495Z,60.20
2018-04-17T06:50:00.559Z,60.30
2018-04-17T06:52:28.661Z,60.20
2018-04-17T06:54:56.828Z,60.30
2018-04-17T06:57:25.701Z,60.40
2018-04-17T06:59:53.919Z,60.30
2018-04-17T07:02:22.036Z,60.30
2018-04-17T07:04:50.156Z,60.20
2018-04-17T07:07:19.036Z,60.10
2018-04-17T07:09:47.203Z,60.00
2018-04-17T07:12:16.100Z,60.00
2018-04-17T07:14:44.228Z,59.90
2018-04-17T07:17:12.439Z,60.00
2018-04-17T07:19:40.555Z,59.90
2018-04-17T07:22:09.453Z,60.00
2018-04-17T07:24:38.361Z,60.00
2018-04-17T07:27:06.500Z,59.90
2018-04-17T07:29:34.624Z,60.00
2018-04-17T07:32:04.529Z,60.00
2018-04-17T07:34:32.650Z,60.00
2018-04-17T07:37:01.537Z,60.10
2018-04-17T07:39:29.732Z,60.10
2018-04-17T07:41:57.861Z,60.30
2018-04-17T07:44:25.972Z,60.30
2018-04-17T07:47:06.022Z,60.40
2018-04-17T07:49:34.155Z,60.30
2018-04-17T07:52:03.045Z,60.40
2018-04-17T07:54:31.958Z,60.20
2018-04-17T07:57:00.052Z,60.90
2018-04-17T07:59:28.161Z,60.20
2018-04-17T08:01:57.628Z,60.40
2018-04-17T08:04:25.813Z,60.30
2018-04-17T08:06:53.959Z,60.00
2018-04-17T08:09:22.140Z,59.70
2018-04-17T08:11:50.256Z,59.40
2018-04-17T08:14:18.341Z,59.70
2018-04-17T08:16:46.497Z,59.90
2018-04-17T08:19:14.569Z,59.60
2018-04-17T08:21:42.692Z,59.50
2018-04-17T08:24:10.792Z,59.80
2018-04-17T08:26:39.660Z,60.60
2018-04-17T08:29:07.782Z,60.60
2018-04-17T08:31:36.036Z,61.00
2018-04-17T08:34:04.143Z,61.40
2018-04-17T08:36:32.248Z,61.30
2018-04-17T08:39:00.352Z,61.60
2018-04-17T08:41:28.471Z,62.10
2018-04-17T08:43:56.600Z,62.40
2018-04-17T08:46:24.740Z,62.90
2018-04-17T08:48:53.698Z,60.80
2018-04-17T08:51:22.561Z,59.20
2018-04-17T08:53:50.673Z,59.10
2018-04-17T08:56:19.549Z,59.10
2018-04-17T08:58:47.676Z,59.10
2018-04-17T09:01:15.797Z,58.70
2018-04-17T09:03:43.917Z,57.00
2018-04-17T09:06:12.030Z,56.50
2018-04-17T09:08:40.136Z,57.10
2018-04-17T09:11:08.243Z,56.10
2018-04-17T09:13:36.348Z,55.50
2018-04-17T09:16:04.460Z,55.00
2018-04-17T09:18:32.640Z,55.60
2018-04-17T09:21:00.809Z,55.70
2018-04-17T09:23:28.940Z,55.30
2018-04-17T09:25:57.056Z,54.60
2018-04-17T09:28:25.183Z,53.60
2018-04-17T09:30:54.128Z,54.00
2018-04-17T09:33:22.231Z,53.90
2018-04-17T09:35:51.108Z,53.60
2018-04-17T09:38:19.216Z,53.60
2018-04-17T09:40:47.339Z,53.30
2018-04-17T09:43:15.496Z,53.10
2018-04-17T09:45:43.638Z,53.30
2018-04-17T09:48:11.750Z,53.30
2018-04-17T09:50:39.881Z,52.50
2018-04-17T09:53:08.027Z,52.70
2018-04-17T09:55:36.163Z,52.50
2018-04-17T09:58:04.308Z,52.40
2018-04-17T10:00:38.068Z,52.30
2018-04-17T10:03:06.185Z,52.20
2018-04-17T10:05:34.292Z,52.50
2018-04-17T10:40:28.889Z,51.40
2018-04-17T10:42:57.016Z,51.20
2018-04-17T10:45:25.117Z,50.80
2018-04-17T10:47:53.996Z,49.70
2018-04-17T10:50:22.124Z,49.60
2018-04-17T10:52:50.232Z,50.80
2018-04-17T10:55:19.159Z,51.70
2018-04-17T10:57:47.244Z,51.60
2018-04-17T11:00:16.148Z,51.20
2018-04-17T11:02:44.298Z,51.10
2018-04-17T11:05:12.479Z,50.60
2018-04-17T11:07:40.666Z,49.90
2018-04-17T11:10:09.549Z,49.50
2018-04-17T11:12:37.801Z,50.20
2018-04-17T11:15:05.923Z,49.80
2018-04-17T11:17:34.808Z,50.00
2018-04-17T11:20:03.697Z,50.00
2018-04-17T11:22:31.812Z,49.90
2018-04-17T11:24:59.945Z,48.60
2018-04-17T11:27:28.040Z,48.20
2018-04-17T11:29:56.928Z,48.20
2018-04-17T11:32:25.026Z,48.10
2018-04-17T11:34:53.116Z,48.50
2018-04-17T11:37:21.237Z,49.20
2018-04-17T11:39:49.337Z,49.40
2018-04-17T11:42:18.216Z,49.10
2018-04-17T11:44:46.312Z,49.10
2018-04-17T11:47:15.188Z,48.60
2018-04-17T11:49:43.299Z,48.60
2018-04-17T11:52:11.396Z,48.50
2018-04-17T11:54:39.520Z,48.00
2018-04-17T11:57:07.728Z,48.40
2018-04-17T11:59:35.821Z,47.00
2018-04-17T12:02:03.919Z,47.80
2018-04-17T12:04:32.787Z,44.40
2018-04-17T12:07:00.904Z,44.40
2018-04-17T12:09:29.023Z,46.20
2018-04-17T12:11:57.916Z,47.90
2018-04-17T12:14:26.038Z,47.90
2018-04-17T12:16:54.136Z,48.20
2018-04-17T12:19:22.256Z,48.40
2018-04-17T12:21:50.400Z,48.60
2018-04-17T12:24:18.525Z,48.60
2018-04-17T12:26:46.635Z,48.40
2018-04-17T12:29:14.758Z,47.60
2018-04-17T12:31:42.906Z,46.60
2018-04-17T12:34:11.009Z,47.10
2018-04-17T12:36:39.884Z,48.00
2018-04-17T12:39:08.028Z,47.90
2018-04-17T12:41:38.064Z,47.90
2018-04-17T12:44:06.191Z,48.40
2018-04-17T12:46:34.295Z,47.70
2018-04-17T12:49:02.412Z,48.00
2018-04-17T12:51:30.520Z,48.10
2018-04-17T12:53:58.687Z,47.70
2018-04-17T12:56:26.817Z,47.60
2018-04-17T12:58:54.916Z,47.70
2018-04-17T13:01:23.041Z,47.70
2018-04-17T13:03:51.161Z,46.00
2018-04-17T13:06:19.270Z,45.00
2018-04-17T13:08:48.153Z,46.00
2018-04-17T13:11:16.253Z,45.90
2018-04-17T13:13:44.364Z,45.70
2018-04-17T13:16:12.459Z,45.80
2018-04-17T13:18:40.568Z,46.30
2018-04-17T13:21:10.311Z,46.70
2018-04-17T13:23:38.442Z,46.60
2018-04-17T13:26:06.558Z,47.00
2018-04-17T13:28:34.652Z,46.60
2018-04-17T13:31:02.847Z,45.10
2018-04-17T13:33:30.944Z,44.30
2018-04-17T13:35:59.871Z,44.60
2018-04-17T13:38:28.026Z,44.50
2018-04-17T13:40:56.144Z,45.00
2018-04-17T13:43:24.268Z,45.40
2018-04-17T13:45:52.385Z,42.70
2018-04-17T13:48:20.520Z,44.10
2018-04-17T13:50:48.628Z,45.20
2018-04-17T13:53:17.515Z,45.20
2018-04-17T13:55:46.405Z,44.60
2018-04-17T13:58:15.308Z,44.30
2018-04-17T14:00:44.179Z,44.90
2018-04-17T14:03:12.292Z,44.70
2018-04-17T14:05:40.430Z,44.90
2018-04-17T14:08:08.568Z,45.20
2018-04-17T14:10:36.674Z,45.40
2018-04-17T14:13:04.811Z,45.50
2018-04-17T14:15:32.928Z,44.60
2018-04-17T14:18:01.058Z,44.70
2018-04-17T14:20:29.173Z,45.00
2018-04-17T14:22:58.117Z,43.30
2018-04-17T14:25:26.244Z,43.40
2018-04-17T14:27:54.340Z,44.50
2018-04-17T14:30:22.452Z,45.00
2018-04-17T14:32:50.565Z,45.10
2018-04-17T14:35:18.680Z,45.30
2018-04-17T14:37:46.836Z,44.20
2018-04-17T14:40:14.944Z,43.20
2018-04-17T14:42:43.824Z,44.40
2018-04-17T14:45:11.942Z,44.30
2018-04-17T14:47:40.070Z,44.60
2018-04-17T14:50:08.172Z,44.30
2018-04-17T14:52:37.055Z,44.90
2018-04-17T14:55:05.159Z,44.90
2018-04-17T14:57:33.343Z,44.90
2018-04-17T15:00:01.492Z,45.00
2018-04-17T15:02:29.648Z,44.70
2018-04-17T15:04:57.768Z,45.00
2018-04-17T15:07:25.877Z,45.40
2018-04-17T15:09:54.019Z,45.10
2018-04-17T15:12:22.894Z,45.30
2018-04-17T15:14:51.787Z,45.80
2018-04-17T15:17:19.968Z,45.20
2018-04-17T15:19:48.064Z,45.00
2018-04-17T15:22:16.166Z,44.90
2018-04-17T15:24:44.285Z,45.00
2018-04-17T15:27:12.377Z,43.10
2018-04-17T15:29:41.249Z,45.00
2018-04-17T15:32:09.382Z,44.90
2018-04-17T15:34:37.500Z,44.70
2018-04-17T15:37:05.615Z,44.70
2018-04-17T15:39:33.744Z,43.10
2018-04-17T15:42:01.843Z,44.40
2018-04-17T15:44:29.962Z,45.90
2018-04-17T15:46:58.492Z,46.00
2018-04-17T15:49:27.471Z,45.50
2018-04-17T15:51:55.585Z,45.30
2018-04-17T15:54:23.676Z,44.40
2018-04-17T15:56:52.554Z,44.50
2018-04-17T15:59:20.657Z,44.50
2018-04-17T16:01:48.792Z,44.70
2018-04-17T16:04:16.879Z,45.40
2018-04-17T16:06:45.012Z,45.60
2018-04-17T16:09:13.173Z,46.20
2018-04-17T16:11:41.225Z,46.40
2018-04-17T16:14:10.098Z,46.80
2018-04-17T16:16:38.199Z,46.20
2018-04-17T16:19:07.096Z,45.90
2018-04-17T16:21:35.988Z,46.40
2018-04-17T16:24:04.887Z,46.60
2018-04-17T16:26:33.912Z,47.00
2018-04-17T16:29:02.036Z,47.60
2018-04-17T16:31:30.136Z,47.20
2018-04-17T16:33:59.023Z,47.60
2018-04-17T16:36:27.129Z,47.60
2018-04-17T16:38:55.244Z,47.90
2018-04-17T16:41:23.348Z,47.60
2018-04-17T16:43:51.453Z,47.90
2018-04-17T16:46:19.544Z,48.30
2018-04-17T16:48:47.656Z,47.90
2018-04-17T16:51:15.787Z,47.60
2018-04-17T16:53:43.892Z,48.00
2018-04-17T16:56:12.014Z,47.90
2018-04-17T16:58:40.887Z,48.90
2018-04-17T17:01:09.016Z,49.00
2018-04-17T17:03:37.136Z,47.20
2018-04-17T17:06:05.228Z,47.70
2018-04-17T17:08:33.392Z,49.10
2018-04-17T17:11:01.551Z,50.00
2018-04-17T17:13:29.654Z,50.70
2018-04-17T17:15:57.803Z,50.80
2018-04-17T17:18:26.463Z,51.10
2018-04-17T17:20:54.952Z,51.30
2018-04-17T17:23:23.923Z,51.50
2018-04-17T17:25:52.032Z,51.50
2018-04-17T17:28:20.196Z,51.80
2018-04-17T17:30:48.344Z,51.40
2018-04-17T17:33:17.312Z,51.20
2018-04-17T17:35:45.417Z,50.70
2018-04-17T17:38:14.362Z,50.90
2018-04-17T17:40:43.919Z,50.80
2018-04-17T17:43:12.016Z,50.70
2018-04-17T17:45:40.892Z,50.80
2018-04-17T17:48:08.993Z,50.70
2018-04-17T17:50:37.879Z,50.40
2018-04-17T17:53:06.761Z,51.00
2018-04-17T17:55:35.657Z,51.50
2018-04-17T17:58:03.795Z,51.40
2018-04-17T18:00:31.883Z,49.80
2018-04-17T18:03:00.157Z,49.80
2018-04-17T18:05:28.539Z,51.10
2018-04-17T18:07:56.672Z,51.40
2018-04-17T18:10:24.809Z,50.80
2018-04-17T18:12:52.908Z,50.40
2018-04-17T18:15:21.777Z,51.50
2018-04-17T18:17:50.032Z,51.50
2018-04-17T18:20:18.169Z,51.70
2018-04-17T18:22:47.053Z,51.60
2018-04-17T18:25:15.923Z,52.10
2018-04-17T18:27:44.050Z,52.00
2018-04-17T18:30:12.160Z,52.30
2018-04-17T18:32:40.267Z,52.50
2018-04-17T18:35:08.387Z,52.60
2018-04-17T18:37:36.504Z,53.40
2018-04-17T18:40:04.628Z,52.80
2018-04-17T18:42:32.756Z,52.80
2018-04-17T18:45:00.862Z,52.70
2018-04-17T18:47:29.765Z,52.90
2018-04-17T18:50:00.671Z,52.90
2018-04-17T18:52:28.774Z,52.90
2018-04-17T18:54:57.672Z,53.00
2018-04-17T18:57:25.778Z,53.00
2018-04-17T18:59:53.915Z,53.00
2018-04-17T19:02:22.025Z,53.00
2018-04-17T19:04:50.120Z,53.10
2018-04-17T19:07:18.270Z,53.10
2018-04-17T19:09:47.177Z,53.20
2018-04-17T19:12:15.309Z,53.20
2018-04-17T19:14:43.434Z,53.30
2018-04-17T19:17:11.583Z,53.30
2018-04-17T19:19:39.675Z,53.30
2018-04-17T19:22:07.810Z,53.40
2018-04-17T19:24:35.924Z,53.40
2018-04-17T19:27:04.812Z,53.50
2018-04-17T19:29:33.704Z,53.50
2018-04-17T19:32:01.791Z,53.50
2018-04-17T19:34:29.908Z,53.60
2018-04-17T19:36:58.097Z,53.70
2018-04-17T19:39:26.206Z,53.40
2018-04-17T19:41:55.135Z,53.60
2018-04-17T19:44:23.240Z,53.50
2018-04-17T19:46:51.372Z,53.80
2018-04-17T19:49:19.499Z,53.80
2018-04-17T19:51:48.147Z,53.80
2018-04-17T19:54:16.276Z,53.70
2018-04-17T19:56:44.427Z,53.80
2018-04-17T19:59:12.528Z,53.90
2018-04-17T20:01:40.663Z,53.90
2018-04-17T20:04:08.765Z,53.90
2018-04-17T20:06:37.596Z,54.00
2018-04-17T20:09:06.527Z,54.10
2018-04-17T20:11:34.628Z,54.10
2018-04-17T20:14:02.731Z,54.20
2018-04-17T20:16:30.855Z,54.20
2018-04-17T20:18:58.996Z,54.30
2018-04-17T20:21:27.879Z,55.00
2018-04-17T20:23:55.988Z,54.30
2018-04-17T20:26:24.132Z,54.30
2018-04-17T20:28:52.219Z,54.10
2018-04-17T20:31:20.344Z,54.10
2018-04-17T20:33:48.440Z,54.30
2018-04-17T20:36:16.546Z,54.30
2018-04-17T20:38:44.667Z,54.50
2018-04-17T20:41:12.780Z,54.60
2018-04-17T20:43:40.878Z,54.60
2018-04-17T20:46:08.984Z,54.50
2018-04-17T20:48:37.104Z,54.50
2018-04-17T20:51:05.203Z,54.60
2018-04-17T20:53:33.372Z,54.70
2018-04-17T20:56:01.485Z,55.30
2018-04-17T20:58:30.649Z,54.90
2018-04-17T21:00:58.791Z,54.90
2018-04-17T21:03:26.908Z,55.50
2018-04-17T21:05:55.062Z,54.90
2018-04-17T21:08:23.185Z,55.00
2018-04-17T21:10:52.064Z,55.00
2018-04-17T21:13:20.186Z,55.00
2018-04-17T21:15:48.288Z,55.10
2018-04-17T21:18:16.391Z,54.90
2018-04-17T21:20:44.513Z,54.70
2018-04-17T21:23:12.625Z,54.70
2018-04-17T21:25:41.505Z,54.30
2018-04-17T21:28:10.384Z,55.20
2018-04-17T21:30:38.531Z,54.60
2018-04-17T21:33:07.428Z,54.90
2018-04-17T21:35:36.299Z,55.00
2018-04-17T21:38:04.411Z,54.90
2018-04-17T21:40:32.516Z,55.20
2018-04-17T21:43:00.628Z,55.20
2018-04-17T21:45:28.741Z,55.00
2018-04-17T21:47:56.844Z,55.40
2018-04-17T21:50:24.956Z,55.40
2018-04-17T21:52:53.069Z,55.50
2018-04-17T21:55:21.192Z,55.60
2018-04-17T21:57:49.411Z,55.70
2018-04-17T22:00:18.288Z,55.80
2018-04-17T22:02:46.387Z,55.70
2018-04-17T22:05:14.514Z,56.20
2018-04-17T22:07:42.652Z,55.90
2018-04-17T22:10:10.762Z,55.80
2018-04-17T22:12:38.866Z,55.90
2018-04-17T22:15:07.780Z,56.00
2018-04-17T22:17:35.882Z,56.00
2018-04-17T22:20:04.053Z,56.10
2018-04-17T22:22:32.188Z,56.00
2018-04-17T22:25:00.305Z,56.20
2018-04-17T22:27:28.427Z,56.70
2018-04-17T22:29:56.549Z,56.20
2018-04-17T22:32:25.426Z,56.30
2018-04-17T22:34:53.527Z,56.30
2018-04-17T22:37:21.652Z,56.30
2018-04-17T22:39:49.795Z,56.20
2018-04-17T22:42:18.666Z,56.30
2018-04-17T22:44:47.848Z,56.30
2018-04-17T22:47:15.947Z,56.30
2018-04-17T22:49:44.848Z,56.30
2018-04-17T22:52:12.961Z,56.30
2018-04-17T22:54:41.142Z,56.40
2018-04-17T22:57:09.221Z,56.30
2018-04-17T22:59:37.334Z,56.40
2018-04-17T23:02:05.450Z,56.40
2018-04-17T23:04:33.572Z,56.50
2018-04-17T23:07:01.704Z,56.50
2018-04-17T23:09:29.831Z,56.50
2018-04-17T23:11:57.957Z,56.50
2018-04-17T23:14:26.099Z,56.60
2018-04-17T23:16:54.223Z,56.70
2018-04-17T23:19:22.331Z,56.60
2018-04-17T23:21:50.433Z,56.70
2018-04-17T23:24:19.342Z,56.80
2018-04-17T23:26:48.200Z,56.90
2018-04-17T23:29:16.328Z,56.80
2018-04-17T23:31:44.428Z,56.90
2018-04-17T23:34:12.551Z,56.90
2018-04-17T23:36:41.436Z,56.90
2018-04-17T23:39:09.557Z,56.90
2018-04-17T23:41:38.025Z,56.90
2018-04-17T23:44:06.143Z,56.90
2018-04-17T23:46:34.241Z,57.00
2018-04-17T23:49:02.373Z,57.10
2018-04-17T23:51:30.943Z,57.10
2018-04-17T23:53:59.076Z,57.20
2018-04-17T23:56:27.196Z,57.20
2018-04-17T23:58:55.296Z,57.30
